sensor_id;sensor_type;location;lat;lon;timestamp;pressure;altitude;pressure_sealevel;temperature;humidity
11830;BME280;5972;42.134;24.718;2023-02-01T00:00:26;99792.00;;;5.35;88.57
11830;BME280;5972;42.134;24.718;2023-02-01T00:02:54;99800.84;;;5.36;87.55
11830;BME280;5972;42.134;24.718;2023-02-01T00:05:22;99796.78;;;5.38;87.82
11830;BME280;5972;42.134;24.718;2023-02-01T00:07:49;99800.56;;;5.37;87.87
11830;BME280;5972;42.134;24.718;2023-02-01T00:10:16;99801.34;;;5.38;88.81
11830;BME280;5972;42.134;24.718;2023-02-01T00:12:43;99805.41;;;5.35;88.82
11830;BME280;5972;42.134;24.718;2023-02-01T00:15:10;99797.75;;;5.42;87.64
11830;BME280;5972;42.134;24.718;2023-02-01T00:17:37;99807.22;;;5.40;87.97
11830;BME280;5972;42.134;24.718;2023-02-01T00:20:07;99797.69;;;5.34;87.94
11830;BME280;5972;42.134;24.718;2023-02-01T00:22:34;99801.84;;;5.40;87.66
11830;BME280;5972;42.134;24.718;2023-02-01T00:25:01;99789.81;;;5.37;88.27
11830;BME280;5972;42.134;24.718;2023-02-01T00:27:27;99795.00;;;5.34;87.74
11830;BME280;5972;42.134;24.718;2023-02-01T00:29:54;99800.72;;;5.41;88.35
11830;BME280;5972;42.134;24.718;2023-02-01T00:32:21;99791.53;;;5.33;88.92
11830;BME280;5972;42.134;24.718;2023-02-01T00:34:48;99799.38;;;5.30;89.97
11830;BME280;5972;42.134;24.718;2023-02-01T00:37:16;99809.81;;;5.31;89.46
11830;BME280;5972;42.134;24.718;2023-02-01T00:39:43;99807.25;;;5.26;89.41
11830;BME280;5972;42.134;24.718;2023-02-01T00:42:09;99817.38;;;5.29;90.10
11830;BME280;5972;42.134;24.718;2023-02-01T00:44:36;99808.66;;;5.24;89.85
11830;BME280;5972;42.134;24.718;2023-02-01T00:47:03;99805.28;;;5.18;89.81
11830;BME280;5972;42.134;24.718;2023-02-01T00:49:30;99806.84;;;5.19;89.34
11830;BME280;5972;42.134;24.718;2023-02-01T00:51:56;99800.72;;;5.05;89.08
11830;BME280;5972;42.134;24.718;2023-02-01T00:54:25;99812.31;;;5.14;89.27
11830;BME280;5972;42.134;24.718;2023-02-01T00:56:51;99791.69;;;5.01;88.79
11830;BME280;5972;42.134;24.718;2023-02-01T00:59:18;99806.09;;;5.05;89.08
11830;BME280;5972;42.134;24.718;2023-02-01T01:01:45;99800.84;;;5.00;90.69
11830;BME280;5972;42.134;24.718;2023-02-01T01:04:12;99799.94;;;5.05;90.12
11830;BME280;5972;42.134;24.718;2023-02-01T01:06:39;99795.84;;;5.07;90.26
11830;BME280;5972;42.134;24.718;2023-02-01T01:09:07;99795.06;;;5.07;90.33
11830;BME280;5972;42.134;24.718;2023-02-01T01:11:37;99800.22;;;5.03;91.20
11830;BME280;5972;42.134;24.718;2023-02-01T01:14:05;99784.97;;;4.90;91.35
11830;BME280;5972;42.134;24.718;2023-02-01T01:16:32;99800.25;;;4.89;91.86
11830;BME280;5972;42.134;24.718;2023-02-01T01:19:00;99771.66;;;4.71;92.48
11830;BME280;5972;42.134;24.718;2023-02-01T01:21:27;99792.09;;;4.94;92.46
11830;BME280;5972;42.134;24.718;2023-02-01T01:23:54;99793.56;;;4.87;92.52
11830;BME280;5972;42.134;24.718;2023-02-01T01:26:26;99784.16;;;4.89;92.73
11830;BME280;5972;42.134;24.718;2023-02-01T01:28:56;99785.94;;;4.94;92.58
11830;BME280;5972;42.134;24.718;2023-02-01T01:31:23;99755.56;;;4.57;93.18
11830;BME280;5972;42.134;24.718;2023-02-01T01:33:52;99797.84;;;4.88;92.73
11830;BME280;5972;42.134;24.718;2023-02-01T01:36:20;99789.63;;;4.84;92.98
11830;BME280;5972;42.134;24.718;2023-02-01T01:38:47;99786.94;;;4.84;93.17
11830;BME280;5972;42.134;24.718;2023-02-01T01:41:16;99788.94;;;4.79;92.66
11830;BME280;5972;42.134;24.718;2023-02-01T01:43:54;99792.59;;;4.69;92.99
11830;BME280;5972;42.134;24.718;2023-02-01T01:46:23;99795.66;;;4.76;93.68
11830;BME280;5972;42.134;24.718;2023-02-01T01:48:57;99780.00;;;4.56;93.73
11830;BME280;5972;42.134;24.718;2023-02-01T01:51:28;99790.69;;;4.70;93.63
11830;BME280;5972;42.134;24.718;2023-02-01T01:54:02;99786.84;;;4.62;93.17
11830;BME280;5972;42.134;24.718;2023-02-01T01:56:32;99806.38;;;4.63;94.35
11830;BME280;5972;42.134;24.718;2023-02-01T01:59:01;99794.38;;;4.60;94.21
11830;BME280;5972;42.134;24.718;2023-02-01T02:01:30;99800.81;;;4.59;93.92
11830;BME280;5972;42.134;24.718;2023-02-01T02:03:57;99785.84;;;4.44;94.75
11830;BME280;5972;42.134;24.718;2023-02-01T02:06:34;99795.16;;;4.47;94.57
11830;BME280;5972;42.134;24.718;2023-02-01T02:09:02;99781.75;;;4.33;95.20
11830;BME280;5972;42.134;24.718;2023-02-01T02:11:29;99798.22;;;4.40;94.81
11830;BME280;5972;42.134;24.718;2023-02-01T02:13:57;99784.13;;;4.35;94.50
11830;BME280;5972;42.134;24.718;2023-02-01T02:16:59;99801.31;;;4.47;94.61
11830;BME280;5972;42.134;24.718;2023-02-01T02:22:48;99797.44;;;4.53;92.63
11830;BME280;5972;42.134;24.718;2023-02-01T02:25:41;99784.44;;;4.47;92.41
11830;BME280;5972;42.134;24.718;2023-02-01T02:28:22;99801.63;;;4.59;92.57
11830;BME280;5972;42.134;24.718;2023-02-01T02:31:09;99795.56;;;4.54;92.14
11830;BME280;5972;42.134;24.718;2023-02-01T02:33:49;99791.69;;;4.60;92.00
11830;BME280;5972;42.134;24.718;2023-02-01T02:36:29;99791.31;;;4.67;92.19
11830;BME280;5972;42.134;24.718;2023-02-01T02:39:05;99799.63;;;4.65;92.39
11830;BME280;5972;42.134;24.718;2023-02-01T02:41:39;99797.84;;;4.74;91.62
11830;BME280;5972;42.134;24.718;2023-02-01T02:44:32;99794.78;;;4.67;91.24
11830;BME280;5972;42.134;24.718;2023-02-01T02:47:24;99794.28;;;4.65;89.62
11830;BME280;5972;42.134;24.718;2023-02-01T02:50:05;99790.41;;;4.57;91.00
11830;BME280;5972;42.134;24.718;2023-02-01T02:52:58;99808.47;;;4.66;91.50
11830;BME280;5972;42.134;24.718;2023-02-01T02:55:45;99805.59;;;4.62;92.12
11830;BME280;5972;42.134;24.718;2023-02-01T02:58:16;99807.16;;;4.63;91.28
11830;BME280;5972;42.134;24.718;2023-02-01T03:01:01;99764.28;;;4.36;92.03
11830;BME280;5972;42.134;24.718;2023-02-01T03:03:48;99794.56;;;4.50;92.55
11830;BME280;5972;42.134;24.718;2023-02-01T03:06:38;99799.34;;;4.53;92.66
11830;BME280;5972;42.134;24.718;2023-02-01T03:09:10;99794.88;;;4.48;93.06
11830;BME280;5972;42.134;24.718;2023-02-01T03:11:42;99795.28;;;4.55;93.90
11830;BME280;5972;42.134;24.718;2023-02-01T03:14:43;99800.72;;;4.50;94.65
11830;BME280;5972;42.134;24.718;2023-02-01T03:17:15;99797.25;;;4.50;95.06
11830;BME280;5972;42.134;24.718;2023-02-01T03:19:47;99803.28;;;4.42;96.19
11830;BME280;5972;42.134;24.718;2023-02-01T03:22:18;99807.28;;;4.44;96.08
11830;BME280;5972;42.134;24.718;2023-02-01T03:24:50;99808.06;;;4.45;96.00
11830;BME280;5972;42.134;24.718;2023-02-01T03:27:21;99801.09;;;4.30;97.27
11830;BME280;5972;42.134;24.718;2023-02-01T03:29:54;99810.13;;;4.34;97.73
11830;BME280;5972;42.134;24.718;2023-02-01T03:32:23;99768.31;;;4.06;98.59
11830;BME280;5972;42.134;24.718;2023-02-01T03:34:52;99808.03;;;4.31;99.32
11830;BME280;5972;42.134;24.718;2023-02-01T03:37:25;99786.88;;;4.16;99.54
11830;BME280;5972;42.134;24.718;2023-02-01T03:39:57;99815.88;;;4.28;99.95
11830;BME280;5972;42.134;24.718;2023-02-01T03:42:30;99812.03;;;4.34;100.00
11830;BME280;5972;42.134;24.718;2023-02-01T03:45:05;99772.66;;;4.02;100.00
11830;BME280;5972;42.134;24.718;2023-02-01T03:47:36;99813.09;;;4.33;100.00
11830;BME280;5972;42.134;24.718;2023-02-01T03:50:06;99818.34;;;4.24;100.00
11830;BME280;5972;42.134;24.718;2023-02-01T03:52:39;99815.06;;;4.27;100.00
11830;BME280;5972;42.134;24.718;2023-02-01T03:55:07;99802.16;;;4.29;100.00
11830;BME280;5972;42.134;24.718;2023-02-01T03:57:38;99808.94;;;4.27;100.00
11830;BME280;5972;42.134;24.718;2023-02-01T04:00:15;99812.88;;;4.29;100.00
11830;BME280;5972;42.134;24.718;2023-02-01T04:02:42;99811.09;;;4.25;100.00
11830;BME280;5972;42.134;24.718;2023-02-01T04:05:09;99811.41;;;4.23;100.00
11830;BME280;5972;42.134;24.718;2023-02-01T04:07:38;99816.81;;;4.18;100.00
11830;BME280;5972;42.134;24.718;2023-02-01T04:10:05;99812.97;;;4.10;100.00
11830;BME280;5972;42.134;24.718;2023-02-01T04:12:32;99816.59;;;4.01;100.00
11830;BME280;5972;42.134;24.718;2023-02-01T04:14:59;99822.72;;;4.01;100.00
11830;BME280;5972;42.134;24.718;2023-02-01T04:17:26;99809.50;;;3.91;100.00
11830;BME280;5972;42.134;24.718;2023-02-01T04:19:53;99809.69;;;3.81;100.00
11830;BME280;5972;42.134;24.718;2023-02-01T04:22:19;99839.75;;;3.92;100.00
11830;BME280;5972;42.134;24.718;2023-02-01T04:24:48;99829.50;;;3.80;100.00
11830;BME280;5972;42.134;24.718;2023-02-01T04:27:15;99805.38;;;3.66;100.00
11830;BME280;5972;42.134;24.718;2023-02-01T04:29:41;99839.75;;;3.92;100.00
11830;BME280;5972;42.134;24.718;2023-02-01T04:32:10;99830.56;;;3.79;100.00
11830;BME280;5972;42.134;24.718;2023-02-01T04:34:37;99855.53;;;3.93;100.00
11830;BME280;5972;42.134;24.718;2023-02-01T04:37:04;99846.06;;;4.01;99.25
11830;BME280;5972;42.134;24.718;2023-02-01T04:39:30;99830.28;;;3.81;98.62
11830;BME280;5972;42.134;24.718;2023-02-01T04:41:58;99851.63;;;4.04;97.28
11830;BME280;5972;42.134;24.718;2023-02-01T04:44:25;99854.66;;;3.98;96.51
11830;BME280;5972;42.134;24.718;2023-02-01T04:46:52;99850.28;;;4.02;95.82
11830;BME280;5972;42.134;24.718;2023-02-01T04:49:19;99862.41;;;3.99;95.50
11830;BME280;5972;42.134;24.718;2023-02-01T04:51:46;99858.03;;;4.03;94.01
11830;BME280;5972;42.134;24.718;2023-02-01T04:54:13;99855.44;;;3.98;94.10
11830;BME280;5972;42.134;24.718;2023-02-01T04:56:40;99854.53;;;3.89;94.07
11830;BME280;5972;42.134;24.718;2023-02-01T04:59:10;99850.53;;;3.87;94.18
11830;BME280;5972;42.134;24.718;2023-02-01T05:01:37;99857.63;;;3.96;93.31
11830;BME280;5972;42.134;24.718;2023-02-01T05:04:04;99870.72;;;3.98;90.92
11830;BME280;5972;42.134;24.718;2023-02-01T05:06:31;99867.75;;;3.99;89.47
11830;BME280;5972;42.134;24.718;2023-02-01T05:08:58;99872.22;;;4.04;88.86
11830;BME280;5972;42.134;24.718;2023-02-01T05:11:24;99875.44;;;4.06;88.46
11830;BME280;5972;42.134;24.718;2023-02-01T05:14:12;99879.66;;;4.07;89.02
11830;BME280;5972;42.134;24.718;2023-02-01T05:16:38;99875.03;;;4.12;88.53
11830;BME280;5972;42.134;24.718;2023-02-01T05:19:05;99854.50;;;4.08;86.97
11830;BME280;5972;42.134;24.718;2023-02-01T05:21:32;99867.66;;;4.23;85.66
11830;BME280;5972;42.134;24.718;2023-02-01T05:23:59;99866.09;;;4.36;84.00
11830;BME280;5972;42.134;24.718;2023-02-01T05:26:42;99857.28;;;4.49;82.33
11830;BME280;5972;42.134;24.718;2023-02-01T05:29:10;99867.31;;;4.57;82.10
11830;BME280;5972;42.134;24.718;2023-02-01T05:31:37;99858.50;;;4.56;80.74
11830;BME280;5972;42.134;24.718;2023-02-01T05:34:05;99853.44;;;4.69;80.93
11830;BME280;5972;42.134;24.718;2023-02-01T05:36:32;99849.09;;;4.73;80.31
11830;BME280;5972;42.134;24.718;2023-02-01T05:38:59;99863.16;;;4.65;81.16
11830;BME280;5972;42.134;24.718;2023-02-01T05:41:26;99837.97;;;4.66;81.38
11830;BME280;5972;42.134;24.718;2023-02-01T05:43:52;99864.16;;;4.69;80.78
11830;BME280;5972;42.134;24.718;2023-02-01T05:46:21;99853.28;;;4.79;81.02
11830;BME280;5972;42.134;24.718;2023-02-01T05:48:47;99850.59;;;4.79;78.98
11830;BME280;5972;42.134;24.718;2023-02-01T05:51:14;99848.91;;;4.83;78.71
11830;BME280;5972;42.134;24.718;2023-02-01T05:53:41;99852.69;;;4.95;77.66
11830;BME280;5972;42.134;24.718;2023-02-01T05:56:08;99783.84;;;4.50;74.47
11830;BME280;5972;42.134;24.718;2023-02-01T05:58:34;99826.63;;;4.96;72.86
11830;BME280;5972;42.134;24.718;2023-02-01T06:01:02;99865.06;;;5.32;70.75
11830;BME280;5972;42.134;24.718;2023-02-01T06:03:30;99858.09;;;5.45;68.62
11830;BME280;5972;42.134;24.718;2023-02-01T06:05:57;99860.25;;;5.57;67.66
11830;BME280;5972;42.134;24.718;2023-02-01T06:08:28;99860.94;;;5.62;66.01
11830;BME280;5972;42.134;24.718;2023-02-01T06:10:59;99848.78;;;5.65;64.61
11830;BME280;5972;42.134;24.718;2023-02-01T06:13:26;99825.47;;;5.52;64.40
11830;BME280;5972;42.134;24.718;2023-02-01T06:15:52;99839.41;;;5.76;63.84
11830;BME280;5972;42.134;24.718;2023-02-01T06:18:19;99867.53;;;5.92;61.27
11830;BME280;5972;42.134;24.718;2023-02-01T06:20:53;99865.47;;;6.11;61.08
11830;BME280;5972;42.134;24.718;2023-02-01T06:23:20;99871.25;;;6.27;59.58
11830;BME280;5972;42.134;24.718;2023-02-01T06:25:50;99877.00;;;6.34;58.44
11830;BME280;5972;42.134;24.718;2023-02-01T06:28:17;99871.53;;;6.48;58.42
11830;BME280;5972;42.134;24.718;2023-02-01T06:30:44;99870.16;;;6.28;58.24
11830;BME280;5972;42.134;24.718;2023-02-01T06:33:12;99858.00;;;6.31;58.09
11830;BME280;5972;42.134;24.718;2023-02-01T06:35:40;99876.13;;;6.47;58.09
11830;BME280;5972;42.134;24.718;2023-02-01T06:38:10;99882.00;;;6.49;56.64
11830;BME280;5972;42.134;24.718;2023-02-01T06:40:37;99858.19;;;6.34;56.68
11830;BME280;5972;42.134;24.718;2023-02-01T06:43:04;99881.06;;;6.54;57.06
11830;BME280;5972;42.134;24.718;2023-02-01T06:45:31;99887.91;;;6.60;56.89
11830;BME280;5972;42.134;24.718;2023-02-01T06:47:58;99884.16;;;6.69;56.22
11830;BME280;5972;42.134;24.718;2023-02-01T06:50:28;99886.97;;;6.64;56.05
11830;BME280;5972;42.134;24.718;2023-02-01T06:52:55;99890.75;;;6.63;55.73
11830;BME280;5972;42.134;24.718;2023-02-01T06:55:29;99884.22;;;6.78;55.11
11830;BME280;5972;42.134;24.718;2023-02-01T06:57:58;99876.56;;;6.72;54.11
11830;BME280;5972;42.134;24.718;2023-02-01T07:00:26;99887.06;;;6.82;54.11
11830;BME280;5972;42.134;24.718;2023-02-01T07:02:53;99887.84;;;6.74;54.97
11830;BME280;5972;42.134;24.718;2023-02-01T07:05:20;99891.75;;;6.67;54.46
11830;BME280;5972;42.134;24.718;2023-02-01T07:07:47;99891.13;;;6.71;53.84
11830;BME280;5972;42.134;24.718;2023-02-01T07:10:16;99884.13;;;6.61;54.19
11830;BME280;5972;42.134;24.718;2023-02-01T07:12:44;99894.25;;;6.64;54.74
11830;BME280;5972;42.134;24.718;2023-02-01T07:15:11;99907.38;;;6.35;56.49
11830;BME280;5972;42.134;24.718;2023-02-01T07:17:38;99888.72;;;6.38;56.50
11830;BME280;5972;42.134;24.718;2023-02-01T07:20:06;99877.94;;;6.30;56.67
11830;BME280;5972;42.134;24.718;2023-02-01T07:22:33;99904.88;;;6.47;56.48
11830;BME280;5972;42.134;24.718;2023-02-01T07:25:00;99909.50;;;6.46;56.90
11830;BME280;5972;42.134;24.718;2023-02-01T07:27:26;99912.84;;;6.52;56.45
11830;BME280;5972;42.134;24.718;2023-02-01T07:29:55;99912.84;;;6.52;56.79
11830;BME280;5972;42.134;24.718;2023-02-01T07:32:22;99908.91;;;6.58;55.86
11830;BME280;5972;42.134;24.718;2023-02-01T07:34:48;99911.50;;;6.63;55.28
11830;BME280;5972;42.134;24.718;2023-02-01T07:37:15;99914.53;;;6.70;55.12
11830;BME280;5972;42.134;24.718;2023-02-01T07:39:42;99914.25;;;6.80;55.02
11830;BME280;5972;42.134;24.718;2023-02-01T07:42:09;99906.84;;;6.86;54.68
11830;BME280;5972;42.134;24.718;2023-02-01T07:44:35;99912.88;;;6.91;54.42
11830;BME280;5972;42.134;24.718;2023-02-01T07:47:04;99897.06;;;6.90;53.75
11830;BME280;5972;42.134;24.718;2023-02-01T07:49:30;99908.53;;;7.04;54.46
11830;BME280;5972;42.134;24.718;2023-02-01T07:51:57;99913.47;;;7.19;53.65
11830;BME280;5972;42.134;24.718;2023-02-01T07:54:24;99911.78;;;7.23;52.85
11830;BME280;5972;42.134;24.718;2023-02-01T07:56:51;99917.63;;;7.25;52.54
11830;BME280;5972;42.134;24.718;2023-02-01T07:59:18;99916.81;;;7.25;52.82
11830;BME280;5972;42.134;24.718;2023-02-01T08:01:44;99909.88;;;7.32;52.79
11830;BME280;5972;42.134;24.718;2023-02-01T08:04:13;99907.53;;;7.39;52.98
11830;BME280;5972;42.134;24.718;2023-02-01T08:06:40;99915.13;;;7.37;53.13
11830;BME280;5972;42.134;24.718;2023-02-01T08:09:07;99916.88;;;7.42;53.18
11830;BME280;5972;42.134;24.718;2023-02-01T08:11:35;99915.31;;;7.49;52.54
11830;BME280;5972;42.134;24.718;2023-02-01T08:14:03;99912.31;;;7.51;52.12
11830;BME280;5972;42.134;24.718;2023-02-01T08:16:30;99916.13;;;7.50;52.26
11830;BME280;5972;42.134;24.718;2023-02-01T08:18:59;99927.66;;;7.42;53.02
11830;BME280;5972;42.134;24.718;2023-02-01T08:21:30;99891.19;;;7.27;52.89
11830;BME280;5972;42.134;24.718;2023-02-01T08:24:03;99921.34;;;7.55;52.61
11830;BME280;5972;42.134;24.718;2023-02-01T08:26:31;99924.22;;;7.59;52.20
11830;BME280;5972;42.134;24.718;2023-02-01T08:29:00;99912.63;;;7.58;52.28
11830;BME280;5972;42.134;24.718;2023-02-01T08:31:29;99885.84;;;7.44;52.19
11830;BME280;5972;42.134;24.718;2023-02-01T08:33:59;99931.38;;;7.72;52.24
11830;BME280;5972;42.134;24.718;2023-02-01T08:36:28;99933.28;;;7.71;51.91
11830;BME280;5972;42.134;24.718;2023-02-01T08:39:00;99911.91;;;7.83;51.93
11830;BME280;5972;42.134;24.718;2023-02-01T08:41:31;99920.63;;;7.89;51.77
11830;BME280;5972;42.134;24.718;2023-02-01T08:43:58;99915.06;;;7.94;51.91
11830;BME280;5972;42.134;24.718;2023-02-01T08:46:27;99914.94;;;7.90;51.39
11830;BME280;5972;42.134;24.718;2023-02-01T08:48:54;99928.72;;;8.15;51.50
11830;BME280;5972;42.134;24.718;2023-02-01T08:51:22;99929.34;;;8.20;50.90
11830;BME280;5972;42.134;24.718;2023-02-01T08:53:50;99926.81;;;8.24;50.24
11830;BME280;5972;42.134;24.718;2023-02-01T08:56:20;99909.69;;;8.37;50.36
11830;BME280;5972;42.134;24.718;2023-02-01T08:58:47;99908.25;;;8.57;49.84
11830;BME280;5972;42.134;24.718;2023-02-01T09:01:16;99920.81;;;8.99;49.21
11830;BME280;5972;42.134;24.718;2023-02-01T09:03:44;99921.63;;;9.58;48.22
11830;BME280;5972;42.134;24.718;2023-02-01T09:06:12;99899.66;;;10.31;46.22
11830;BME280;5972;42.134;24.718;2023-02-01T09:08:42;99917.09;;;11.96;43.78
11830;BME280;5972;42.134;24.718;2023-02-01T09:11:14;99888.09;;;13.66;39.68
11830;BME280;5972;42.134;24.718;2023-02-01T09:13:48;99908.56;;;15.17;36.57
11830;BME280;5972;42.134;24.718;2023-02-01T09:16:15;99890.09;;;15.83;34.94
11830;BME280;5972;42.134;24.718;2023-02-01T09:18:41;99889.88;;;17.05;33.43
11830;BME280;5972;42.134;24.718;2023-02-01T09:21:08;99894.84;;;17.37;31.81
11830;BME280;5972;42.134;24.718;2023-02-01T09:23:35;99874.38;;;17.71;31.51
11830;BME280;5972;42.134;24.718;2023-02-01T09:26:03;99889.22;;;17.16;32.21
11830;BME280;5972;42.134;24.718;2023-02-01T09:28:33;99883.25;;;18.41;30.50
11830;BME280;5972;42.134;24.718;2023-02-01T09:31:03;99882.78;;;18.10;30.75
11830;BME280;5972;42.134;24.718;2023-02-01T09:33:29;99870.25;;;18.13;30.65
11830;BME280;5972;42.134;24.718;2023-02-01T09:35:56;99865.97;;;18.15;30.33
11830;BME280;5972;42.134;24.718;2023-02-01T09:38:23;99848.72;;;18.04;30.98
11830;BME280;5972;42.134;24.718;2023-02-01T09:40:53;99871.88;;;17.52;31.55
11830;BME280;5972;42.134;24.718;2023-02-01T09:43:29;99859.53;;;17.76;31.16
11830;BME280;5972;42.134;24.718;2023-02-01T09:46:07;99832.72;;;17.37;31.39
11830;BME280;5972;42.134;24.718;2023-02-01T09:48:43;99851.78;;;17.89;31.28
11830;BME280;5972;42.134;24.718;2023-02-01T09:51:19;99852.88;;;17.70;31.08
11830;BME280;5972;42.134;24.718;2023-02-01T09:53:57;99854.88;;;17.80;30.71
11830;BME280;5972;42.134;24.718;2023-02-01T09:56:29;99844.75;;;17.88;30.66
11830;BME280;5972;42.134;24.718;2023-02-01T09:59:04;99808.19;;;16.93;31.12
11830;BME280;5972;42.134;24.718;2023-02-01T10:01:38;99835.97;;;16.58;31.25
11830;BME280;5972;42.134;24.718;2023-02-01T10:04:09;99834.69;;;16.89;31.24
11830;BME280;5972;42.134;24.718;2023-02-01T10:06:51;99846.19;;;17.09;31.16
11830;BME280;5972;42.134;24.718;2023-02-01T10:09:36;99850.31;;;16.89;31.55
11830;BME280;5972;42.134;24.718;2023-02-01T10:12:33;99797.41;;;16.63;31.60
11830;BME280;5972;42.134;24.718;2023-02-01T10:15:17;99824.09;;;17.39;31.34
11830;BME280;5972;42.134;24.718;2023-02-01T10:18:03;99845.41;;;17.63;30.90
11830;BME280;5972;42.134;24.718;2023-02-01T10:20:43;99823.59;;;17.77;30.94
11830;BME280;5972;42.134;24.718;2023-02-01T10:23:27;99840.47;;;17.97;30.64
11830;BME280;5972;42.134;24.718;2023-02-01T10:26:01;99804.56;;;18.16;30.05
11830;BME280;5972;42.134;24.718;2023-02-01T10:28:34;99837.78;;;18.08;30.04
11830;BME280;5972;42.134;24.718;2023-02-01T10:31:03;99840.00;;;17.81;30.05
11830;BME280;5972;42.134;24.718;2023-02-01T10:33:39;99784.63;;;16.78;30.18
11830;BME280;5972;42.134;24.718;2023-02-01T10:36:14;99810.75;;;16.35;32.04
11830;BME280;5972;42.134;24.718;2023-02-01T10:38:43;99719.59;;;15.66;32.30
11830;BME280;5972;42.134;24.718;2023-02-01T10:41:20;99664.88;;;15.55;32.13
11830;BME280;5972;42.134;24.718;2023-02-01T10:43:52;99778.13;;;16.49;32.16
11830;BME280;5972;42.134;24.718;2023-02-01T10:46:21;99818.59;;;16.77;32.07
11830;BME280;5972;42.134;24.718;2023-02-01T10:48:50;99794.59;;;17.04;31.05
11830;BME280;5972;42.134;24.718;2023-02-01T10:51:22;99754.56;;;16.75;31.30
11830;BME280;5972;42.134;24.718;2023-02-01T10:53:55;99663.88;;;16.11;30.95
11830;BME280;5972;42.134;24.718;2023-02-01T10:56:27;99668.91;;;16.56;30.95
11830;BME280;5972;42.134;24.718;2023-02-01T10:59:00;99750.13;;;17.14;30.77
11830;BME280;5972;42.134;24.718;2023-02-01T11:01:31;99813.38;;;17.09;31.03
11830;BME280;5972;42.134;24.718;2023-02-01T11:04:03;99687.59;;;16.47;30.69
11830;BME280;5972;42.134;24.718;2023-02-01T11:06:34;99808.06;;;17.34;30.74
11830;BME280;5972;42.134;24.718;2023-02-01T11:09:18;99737.09;;;16.02;31.53
11830;BME280;5972;42.134;24.718;2023-02-01T11:11:57;99678.94;;;15.94;31.47
11830;BME280;5972;42.134;24.718;2023-02-01T11:14:34;99807.66;;;16.37;31.74
11830;BME280;5972;42.134;24.718;2023-02-01T11:17:16;99783.09;;;16.40;31.86
11830;BME280;5972;42.134;24.718;2023-02-01T11:19:46;99768.09;;;16.20;32.12
11830;BME280;5972;42.134;24.718;2023-02-01T11:22:14;99752.31;;;15.39;32.92
11830;BME280;5972;42.134;24.718;2023-02-01T11:24:44;99751.94;;;14.85;34.04
11830;BME280;5972;42.134;24.718;2023-02-01T11:27:14;99787.09;;;14.93;33.94
11830;BME280;5972;42.134;24.718;2023-02-01T11:29:45;99759.22;;;14.54;34.33
11830;BME280;5972;42.134;24.718;2023-02-01T11:32:15;99778.03;;;14.37;34.54
11830;BME280;5972;42.134;24.718;2023-02-01T11:34:48;99772.28;;;14.23;34.93
11830;BME280;5972;42.134;24.718;2023-02-01T11:37:18;99719.22;;;13.90;35.27
11830;BME280;5972;42.134;24.718;2023-02-01T11:39:54;99746.91;;;13.77;35.73
11830;BME280;5972;42.134;24.718;2023-02-01T11:42:21;99780.50;;;13.84;36.25
11830;BME280;5972;42.134;24.718;2023-02-01T11:44:48;99765.97;;;13.77;36.13
11830;BME280;5972;42.134;24.718;2023-02-01T11:47:23;99726.28;;;13.53;36.38
11830;BME280;5972;42.134;24.718;2023-02-01T11:49:53;99731.53;;;13.26;36.96
11830;BME280;5972;42.134;24.718;2023-02-01T11:52:38;99749.78;;;13.26;37.48
11830;BME280;5972;42.134;24.718;2023-02-01T11:55:35;99722.31;;;12.96;37.72
11830;BME280;5972;42.134;24.718;2023-02-01T11:58:20;99719.44;;;12.89;37.86
11830;BME280;5972;42.134;24.718;2023-02-01T12:01:19;99704.59;;;13.18;37.70
11830;BME280;5972;42.134;24.718;2023-02-01T12:06:49;99717.19;;;13.26;37.01
11830;BME280;5972;42.134;24.718;2023-02-01T12:12:17;99737.38;;;13.09;37.20
11830;BME280;5972;42.134;24.718;2023-02-01T12:15:03;99735.56;;;12.98;37.72
11830;BME280;5972;42.134;24.718;2023-02-01T12:23:49;99733.91;;;12.77;37.77
11830;BME280;5972;42.134;24.718;2023-02-01T12:26:32;99723.06;;;12.62;38.25
11830;BME280;5972;42.134;24.718;2023-02-01T12:29:24;99710.59;;;12.26;38.77
11830;BME280;5972;42.134;24.718;2023-02-01T12:32:06;99706.81;;;12.30;39.32
11830;BME280;5972;42.134;24.718;2023-02-01T12:35:03;99714.97;;;12.30;39.37
11830;BME280;5972;42.134;24.718;2023-02-01T12:37:44;99669.53;;;12.12;38.54
11830;BME280;5972;42.134;24.718;2023-02-01T12:40:28;99683.44;;;12.41;38.13
11830;BME280;5972;42.134;24.718;2023-02-01T12:43:01;99717.22;;;12.95;38.02
11830;BME280;5972;42.134;24.718;2023-02-01T12:45:33;99712.88;;;12.90;37.96
11830;BME280;5972;42.134;24.718;2023-02-01T12:48:10;99713.06;;;13.16;37.52
11830;BME280;5972;42.134;24.718;2023-02-01T12:50:46;99701.53;;;13.04;37.12
11830;BME280;5972;42.134;24.718;2023-02-01T12:53:17;99713.50;;;12.83;37.39
11830;BME280;5972;42.134;24.718;2023-02-01T12:55:50;99718.69;;;12.73;37.59
11830;BME280;5972;42.134;24.718;2023-02-01T12:58:23;99713.97;;;12.54;38.31
11830;BME280;5972;42.134;24.718;2023-02-01T13:00:57;99719.31;;;12.50;38.21
11830;BME280;5972;42.134;24.718;2023-02-01T13:03:34;99709.09;;;12.13;39.17
11830;BME280;5972;42.134;24.718;2023-02-01T13:06:07;99693.69;;;12.01;39.30
11830;BME280;5972;42.134;24.718;2023-02-01T13:08:41;99731.13;;;12.11;39.43
11830;BME280;5972;42.134;24.718;2023-02-01T13:11:16;99737.06;;;12.01;39.38
11830;BME280;5972;42.134;24.718;2023-02-01T13:13:52;99739.50;;;11.90;39.48
11830;BME280;5972;42.134;24.718;2023-02-01T13:16:25;99740.34;;;11.79;39.68
11830;BME280;5972;42.134;24.718;2023-02-01T13:19:15;99723.31;;;11.66;39.99
11830;BME280;5972;42.134;24.718;2023-02-01T13:21:46;99744.28;;;11.81;40.22
11830;BME280;5972;42.134;24.718;2023-02-01T13:24:27;99739.41;;;11.87;39.79
11830;BME280;5972;42.134;24.718;2023-02-01T13:26:57;99750.69;;;11.89;39.90
11830;BME280;5972;42.134;24.718;2023-02-01T13:29:25;99732.78;;;11.72;39.70
11830;BME280;5972;42.134;24.718;2023-02-01T13:32:08;99734.13;;;11.78;39.67
11830;BME280;5972;42.134;24.718;2023-02-01T13:35:19;99742.53;;;11.89;39.61
11830;BME280;5972;42.134;24.718;2023-02-01T13:38:04;99724.03;;;11.91;39.19
11830;BME280;5972;42.134;24.718;2023-02-01T13:40:38;99709.50;;;11.71;39.11
11830;BME280;5972;42.134;24.718;2023-02-01T13:43:12;99732.88;;;12.03;39.21
11830;BME280;5972;42.134;24.718;2023-02-01T13:45:46;99730.59;;;12.05;38.67